»·PEaware :: FDX3171 KGJT-KASE

FDX3171 :: KGJT-KASE

FLIGHT INFORMATION

Flight Status: Arrived
Operator:
Federal Express
More flights by this operator :: More flights under this callsign
Pilot: David C. (16084)
Aircraft: BEECH AIRCRAFT BEECH AIRLINER
(B190)
More flights by this aircraft type
Origin: KGJT Walker
United States
Destination: KASE Aspen-Pitkin Co/Sardy
United States
More flights between these airports :: More routes between these airports
Route: JNC7 DIRDY DBL
File this flight plan on PilotEdge
Remarks:
Altitude:
(Current/Filed)
21,000ft
Speed:
(Current/Filed)
252kts
Departed: 12-Jan-18 02:08 PM
Arrived: 12-Jan-18 02:44 PM
Distance/Time
Traveled:
77nm/0:36
Distance/Time
To Go:
Arrived

Flight Plot

Page will automatically refresh every two minutes.

Flight plan parsing failed; only flown route is shown


Map Options




Map Legend


Flown Route
Filed Route
Departure Airport
Arrival Airport
Navaid (VOR, NDB)
Fix

Horizontal Profiles

Position Reports

Time Latitude Longitude Heading Altitude Ground
Speed
12-Jan-18 14:00 39.122224 -108.526866 213 4862ft 0kts
12-Jan-18 14:01 39.122224 -108.526866 213 4862ft 0kts
12-Jan-18 14:02 39.122224 -108.526866 213 4862ft 0kts
12-Jan-18 14:03 39.122224 -108.526866 213 4862ft 0kts
12-Jan-18 14:04 39.122224 -108.526866 213 4862ft 0kts
12-Jan-18 14:05 39.122224 -108.526866 213 4862ft 0kts
12-Jan-18 14:06 39.122224 -108.526866 213 4862ft 0kts
12-Jan-18 14:07 39.122390 -108.526749 197 4862ft 0kts
12-Jan-18 14:08 39.122605 -108.526681 129 4862ft 0kts
12-Jan-18 14:09 39.122605 -108.526681 129 4862ft 0kts
12-Jan-18 14:10 39.122608 -108.524261 124 4862ft 20kts
12-Jan-18 14:11 39.118249 -108.516352 124 4862ft 21kts
12-Jan-18 14:12 39.117971 -108.515389 58 4862ft 0kts
12-Jan-18 14:13 39.117974 -108.515383 58 4862ft 0kts
12-Jan-18 14:14 39.126798 -108.529521 305 4955ft 153kts
12-Jan-18 14:15 39.141974 -108.582065 240 7577ft 175kts
12-Jan-18 14:16 39.119633 -108.636518 246 10030ft 178kts
12-Jan-18 14:17 39.101402 -108.683516 247 12045ft 178kts
12-Jan-18 14:18 39.067992 -108.746418 193 14038ft 231kts
12-Jan-18 14:19 39.025133 -108.683164 88 14013ft 281kts
12-Jan-18 14:20 39.021116 -108.602429 90 15373ft 246kts
12-Jan-18 14:21 39.015241 -108.524667 88 17690ft 217kts
12-Jan-18 14:22 39.009122 -108.446154 87 19496ft 225kts
12-Jan-18 14:23 39.002549 -108.364753 87 21091ft 234kts
12-Jan-18 14:24 38.995505 -108.276090 89 21332ft 281kts
12-Jan-18 14:25 38.986791 -108.172067 89 21323ft 301kts
12-Jan-18 14:26 38.977666 -108.063741 89 21318ft 307kts
12-Jan-18 14:27 38.968429 -107.954816 89 21316ft 308kts
12-Jan-18 14:28 38.959016 -107.844970 89 21317ft 309kts
12-Jan-18 14:29 38.949521 -107.735386 89 21318ft 309kts
12-Jan-18 14:30 38.939959 -107.626102 89 21319ft 309kts
12-Jan-18 14:31 38.933878 -107.522648 60 19969ft 262kts
12-Jan-18 14:32 38.981530 -107.454311 36 18604ft 267kts
12-Jan-18 14:33 39.035745 -107.387532 36 17154ft 269kts
12-Jan-18 14:34 39.086254 -107.326253 37 16193ft 249kts
12-Jan-18 14:35 39.134686 -107.267453 37 16009ft 242kts
12-Jan-18 14:36 39.181961 -107.209918 37 16009ft 237kts
12-Jan-18 14:37 39.231040 -107.150163 37 16013ft 261kts
12-Jan-18 14:38 39.280193 -107.090056 37 16028ft 265kts
12-Jan-18 14:39 39.333064 -107.025289 37 14790ft 249kts
12-Jan-18 14:40 39.380259 -106.967419 37 14021ft 226kts
12-Jan-18 14:41 39.426528 -106.911417 36 14037ft 238kts
12-Jan-18 14:42 39.475373 -106.926799 306 14034ft 226kts
12-Jan-18 14:43 39.527923 -106.944838 45 14022ft 244kts
12-Jan-18 14:44 39.505023 -106.877060 148 14040ft 237kts
12-Jan-18 14:45 39.446640 -106.871769 197 13936ft 223kts
12-Jan-18 14:46 39.386583 -106.887265 196 12609ft 222kts
12-Jan-18 14:47 39.331833 -106.883463 180 11873ft 182kts
12-Jan-18 14:48 39.282665 -106.878380 179 9849ft 162kts
12-Jan-18 14:49 39.240665 -106.876262 178 8171ft 138kts
12-Jan-18 14:50 39.220353 -106.866822 95 7824ft 0kts
12-Jan-18 14:51 39.220349 -106.866694 89 7824ft 4kts
12-Jan-18 14:52 39.221705 -106.866720 338 7824ft 23kts
12-Jan-18 14:53 39.226954 -106.869270 340 7824ft 17kts
12-Jan-18 14:54 39.227539 -106.869156 242 7824ft 0kts
12-Jan-18 14:55 39.227539 -106.869156 242 7824ft 0kts
12-Jan-18 14:56 39.227539 -106.869156 242 7824ft 0kts

Navigation Log

Ident Type
Flight plan parsing failed, navigation log unavailable